createdAt,value
2022-09-11T00:01:32.561Z,21.85
2022-09-11T00:04:00.223Z,21.88
2022-09-11T00:06:30.093Z,21.85
2022-09-11T00:09:01.099Z,21.87
2022-09-11T00:11:40.410Z,21.82
2022-09-11T00:14:14.843Z,21.71
2022-09-11T00:16:45.217Z,21.87
2022-09-11T00:19:19.321Z,22.08
2022-09-11T00:21:47.697Z,21.91
2022-09-11T00:24:15.166Z,21.77
2022-09-11T00:26:45.163Z,21.87
2022-09-11T00:29:12.577Z,21.75
2022-09-11T00:31:40.220Z,21.76
2022-09-11T00:34:09.770Z,21.73
2022-09-11T00:36:41.317Z,21.71
2022-09-11T00:39:10.763Z,21.82
2022-09-11T00:41:41.277Z,21.72
2022-09-11T00:44:29.702Z,21.70
2022-09-11T00:47:00.272Z,21.70
2022-09-11T00:49:41.014Z,21.66
2022-09-11T00:52:23.139Z,21.65
2022-09-11T00:54:54.338Z,21.66
2022-09-11T00:57:24.702Z,21.64
2022-09-11T00:59:58.499Z,21.71
2022-09-11T01:02:30.078Z,21.64
2022-09-11T01:04:58.138Z,21.59
2022-09-11T01:07:27.095Z,21.75
2022-09-11T01:09:55.933Z,21.77
2022-09-11T01:12:33.022Z,21.71
2022-09-11T01:15:03.897Z,21.60
2022-09-11T01:17:44.146Z,21.65
2022-09-11T01:20:45.071Z,21.64
2022-09-11T01:23:18.518Z,21.70
2022-09-11T01:25:48.925Z,21.69
2022-09-11T01:28:23.319Z,21.72
2022-09-11T01:30:58.168Z,21.69
2022-09-11T01:33:38.114Z,21.80
2022-09-11T01:36:10.263Z,21.60
2022-09-11T01:38:46.806Z,21.67
2022-09-11T01:41:16.860Z,21.54
2022-09-11T01:44:24.685Z,21.54
2022-09-11T01:46:53.583Z,21.49
2022-09-11T01:49:35.462Z,21.38
2022-09-11T01:52:10.837Z,21.30
2022-09-11T01:54:45.181Z,21.35
2022-09-11T01:57:26.143Z,21.45
2022-09-11T02:00:00.982Z,21.48
2022-09-11T02:02:34.837Z,21.45
2022-09-11T02:05:08.858Z,21.36
2022-09-11T02:07:50.031Z,21.55
2022-09-11T02:10:35.217Z,21.50
2022-09-11T02:13:13.914Z,21.46
2022-09-11T02:15:47.847Z,21.26
2022-09-11T02:18:29.398Z,21.27
2022-09-11T02:20:57.241Z,21.19
2022-09-11T02:23:24.726Z,21.06
2022-09-11T02:25:53.898Z,21.15
2022-09-11T02:28:23.769Z,21.21
2022-09-11T02:30:51.349Z,21.17
2022-09-11T02:33:30.627Z,21.16
2022-09-11T02:36:08.611Z,20.90
2022-09-11T02:38:57.287Z,20.97
2022-09-11T02:41:35.719Z,21.15
2022-09-11T02:44:15.188Z,21.36
2022-09-11T02:47:26.810Z,21.27
2022-09-11T02:50:16.130Z,21.12
2022-09-11T02:53:01.202Z,21.09
2022-09-11T02:55:43.719Z,20.90
2022-09-11T02:58:19.573Z,20.92
2022-09-11T03:00:48.172Z,20.67
2022-09-11T03:03:16.025Z,20.59
2022-09-11T03:05:43.590Z,20.40
2022-09-11T03:08:12.046Z,20.14
2022-09-11T03:10:40.437Z,20.18
2022-09-11T03:13:11.043Z,20.26
2022-09-11T03:15:38.336Z,20.44
2022-09-11T03:18:05.829Z,20.65
2022-09-11T03:20:34.203Z,20.59
2022-09-11T03:23:01.997Z,20.37
2022-09-11T03:25:29.929Z,20.32
2022-09-11T03:28:00.313Z,20.26
2022-09-11T03:30:30.011Z,20.26
2022-09-11T03:32:58.491Z,20.23
2022-09-11T03:35:27.226Z,20.09
2022-09-11T03:37:57.776Z,19.99
2022-09-11T03:40:25.304Z,20.00
2022-09-11T03:42:53.087Z,20.01
2022-09-11T03:45:21.445Z,20.02
2022-09-11T03:47:48.862Z,19.56
2022-09-11T03:50:17.777Z,19.62
2022-09-11T03:52:45.126Z,19.60
2022-09-11T03:55:12.535Z,19.41
2022-09-11T03:57:39.898Z,19.72
2022-09-11T04:00:10.674Z,19.76
2022-09-11T04:02:55.686Z,19.55
2022-09-11T04:05:36.589Z,19.40
2022-09-11T04:08:05.279Z,19.51
2022-09-11T04:10:34.399Z,19.28
2022-09-11T04:13:02.833Z,19.07
2022-09-11T04:15:31.077Z,19.19
2022-09-11T04:18:03.359Z,19.32
2022-09-11T04:20:33.755Z,19.22
2022-09-11T04:23:01.219Z,19.10
2022-09-11T04:25:31.480Z,18.93
2022-09-11T04:28:02.826Z,19.05
2022-09-11T04:30:30.333Z,19.04
2022-09-11T04:32:58.995Z,18.87
2022-09-11T04:35:26.442Z,18.95
2022-09-11T04:37:57.064Z,19.04
2022-09-11T04:40:24.378Z,18.82
2022-09-11T04:42:51.846Z,18.98
2022-09-11T04:45:20.291Z,18.81
2022-09-11T04:47:47.835Z,18.67
2022-09-11T04:50:15.742Z,18.80
2022-09-11T04:52:45.361Z,18.75
2022-09-11T04:55:12.986Z,18.73
2022-09-11T04:57:40.280Z,18.92
2022-09-11T05:00:08.880Z,19.07
2022-09-11T05:02:36.827Z,19.19
2022-09-11T05:05:05.679Z,19.10
2022-09-11T05:07:33.379Z,19.07
2022-09-11T05:10:04.630Z,19.08
2022-09-11T05:12:32.007Z,19.09
2022-09-11T05:14:59.652Z,19.29
2022-09-11T05:17:27.268Z,19.33
2022-09-11T05:19:56.017Z,19.29
2022-09-11T05:22:23.996Z,19.22
2022-09-11T05:24:56.022Z,19.33
2022-09-11T05:27:23.282Z,19.39
2022-09-11T05:29:53.380Z,19.53
2022-09-11T05:32:20.687Z,19.59
2022-09-11T05:34:48.235Z,20.00
2022-09-11T05:37:17.022Z,19.87
2022-09-11T05:39:46.138Z,20.05
2022-09-11T05:42:15.291Z,20.07
2022-09-11T05:44:48.105Z,20.26
2022-09-11T05:47:16.298Z,20.37
2022-09-11T05:49:45.885Z,20.51
2022-09-11T05:52:14.841Z,20.77
2022-09-11T05:54:46.317Z,20.71
2022-09-11T05:57:15.152Z,20.89
2022-09-11T05:59:43.517Z,21.28
2022-09-11T06:02:12.207Z,22.19
2022-09-11T06:04:48.274Z,23.17
2022-09-11T06:07:15.602Z,24.34
2022-09-11T06:09:46.169Z,24.06
2022-09-11T06:12:13.535Z,23.95
2022-09-11T06:14:44.423Z,22.90
2022-09-11T06:17:12.408Z,22.11
2022-09-11T06:19:40.026Z,23.37
2022-09-11T06:22:07.504Z,25.35
2022-09-11T06:24:39.307Z,26.25
2022-09-11T06:27:06.931Z,26.01
2022-09-11T06:29:38.059Z,26.43
2022-09-11T06:32:06.895Z,27.24
2022-09-11T06:34:34.548Z,27.81
2022-09-11T06:37:05.906Z,28.78
2022-09-11T06:39:34.264Z,29.21
2022-09-11T06:42:02.955Z,28.99
2022-09-11T06:44:35.109Z,29.64
2022-09-11T06:47:05.337Z,29.60
2022-09-11T06:49:34.914Z,29.58
2022-09-11T06:52:35.338Z,29.99
2022-09-11T06:55:14.620Z,30.44
2022-09-11T06:57:48.367Z,30.11
2022-09-11T07:00:20.295Z,30.26
2022-09-11T07:02:47.675Z,28.93
2022-09-11T07:05:15.817Z,30.08
2022-09-11T07:07:48.347Z,29.20
2022-09-11T07:10:17.136Z,29.70
2022-09-11T07:12:49.326Z,30.60
2022-09-11T07:15:17.087Z,30.24
2022-09-11T07:17:44.458Z,29.82
2022-09-11T07:20:13.854Z,30.37
2022-09-11T07:22:41.352Z,30.58
2022-09-11T07:25:09.153Z,29.83
2022-09-11T07:27:40.057Z,30.16
2022-09-11T07:30:10.483Z,31.96
2022-09-11T07:32:39.949Z,32.27
2022-09-11T07:35:07.780Z,31.88
2022-09-11T07:37:37.774Z,31.42
2022-09-11T07:40:06.041Z,31.92
2022-09-11T07:42:34.040Z,32.05
2022-09-11T07:45:04.324Z,31.72
2022-09-11T07:47:34.574Z,32.39
2022-09-11T07:50:02.927Z,32.59
2022-09-11T07:52:31.852Z,32.36
2022-09-11T07:55:02.137Z,33.04
2022-09-11T07:57:32.191Z,32.96
2022-09-11T08:00:03.896Z,32.75
2022-09-11T08:02:48.544Z,32.73
2022-09-11T08:05:20.948Z,32.65
2022-09-11T08:07:48.553Z,32.03
2022-09-11T08:10:27.349Z,30.84
2022-09-11T08:12:59.637Z,31.65
2022-09-11T08:15:30.757Z,32.43
2022-09-11T08:17:58.256Z,32.03
2022-09-11T08:20:25.598Z,33.19
2022-09-11T08:22:53.018Z,33.46
2022-09-11T08:25:20.386Z,32.80
2022-09-11T08:27:47.648Z,32.82
2022-09-11T08:30:18.819Z,33.40
2022-09-11T08:32:46.626Z,33.53
2022-09-11T08:35:14.022Z,33.29
2022-09-11T08:37:43.286Z,33.03
2022-09-11T08:40:13.070Z,32.87
2022-09-11T08:42:43.479Z,32.83
2022-09-11T08:45:18.269Z,33.55
2022-09-11T08:47:57.551Z,33.72
2022-09-11T08:50:34.516Z,32.98
2022-09-11T08:53:03.521Z,33.23
2022-09-11T08:55:41.368Z,33.29
2022-09-11T08:58:55.397Z,33.74
2022-09-11T09:01:37.323Z,34.01
2022-09-11T09:04:19.929Z,33.43
2022-09-11T09:07:20.149Z,34.00
2022-09-11T09:10:09.031Z,33.35
2022-09-11T09:13:22.138Z,33.52
2022-09-11T09:16:05.808Z,33.21
2022-09-11T09:18:55.420Z,33.58
2022-09-11T09:21:40.526Z,33.46
2022-09-11T09:24:19.915Z,33.01
2022-09-11T09:26:54.243Z,32.90
2022-09-11T09:29:24.394Z,32.94
2022-09-11T09:31:57.428Z,33.32
2022-09-11T09:34:31.227Z,33.35
2022-09-11T09:37:21.986Z,33.39
2022-09-11T09:39:51.296Z,33.30
2022-09-11T09:42:58.936Z,32.90
2022-09-11T09:45:38.875Z,33.24
2022-09-11T09:48:10.686Z,32.80
2022-09-11T09:50:40.646Z,32.90
2022-09-11T09:53:31.313Z,32.91
2022-09-11T09:56:00.459Z,33.14
2022-09-11T09:58:48.898Z,33.87
2022-09-11T10:01:44.875Z,33.72
2022-09-11T10:04:15.313Z,33.58
2022-09-11T10:06:47.672Z,33.31
2022-09-11T10:09:33.911Z,33.12
2022-09-11T10:12:08.847Z,33.39
2022-09-11T10:14:52.280Z,33.68
2022-09-11T10:17:39.501Z,33.12
2022-09-11T10:20:16.117Z,33.18
2022-09-11T10:22:43.907Z,33.55
2022-09-11T10:25:20.739Z,33.04
2022-09-11T10:28:08.960Z,32.78
2022-09-11T10:30:39.531Z,32.81
2022-09-11T10:33:33.659Z,32.69
2022-09-11T10:36:05.443Z,32.01
2022-09-11T10:38:45.347Z,32.92
2022-09-11T10:41:12.955Z,32.38
2022-09-11T10:43:47.600Z,32.10
2022-09-11T10:46:22.791Z,32.23
2022-09-11T10:48:56.564Z,32.12
2022-09-11T10:51:25.908Z,31.96
2022-09-11T10:54:07.165Z,32.39
2022-09-11T10:56:38.363Z,32.21
2022-09-11T10:59:11.868Z,32.51
2022-09-11T11:01:40.036Z,32.73
2022-09-11T11:04:15.340Z,32.21
2022-09-11T11:06:49.194Z,32.12
2022-09-11T11:09:47.717Z,31.85
2022-09-11T11:12:44.405Z,31.84
2022-09-11T11:15:43.714Z,30.95
2022-09-11T11:18:38.795Z,31.49
2022-09-11T11:21:54.725Z,32.03
2022-09-11T11:24:32.319Z,31.78
2022-09-11T11:27:08.801Z,31.40
2022-09-11T11:30:03.670Z,31.46
2022-09-11T11:32:46.887Z,31.48
2022-09-11T11:35:32.034Z,31.59
2022-09-11T11:38:13.090Z,31.41
2022-09-11T11:40:47.981Z,31.16
2022-09-11T11:43:21.265Z,31.42
2022-09-11T11:45:57.066Z,30.84
2022-09-11T11:48:44.283Z,31.67
2022-09-11T11:51:20.145Z,31.33
2022-09-11T11:54:07.629Z,30.21
2022-09-11T11:56:51.847Z,31.16
2022-09-11T11:59:51.697Z,31.15
2022-09-11T12:02:27.918Z,31.13
2022-09-11T12:05:05.432Z,31.06
2022-09-11T12:07:37.301Z,31.20
2022-09-11T12:10:08.129Z,31.31
2022-09-11T12:12:45.383Z,31.42
2022-09-11T12:15:24.310Z,31.14
2022-09-11T12:18:24.915Z,30.95
2022-09-11T12:20:52.999Z,31.39
2022-09-11T12:23:34.028Z,30.78
2022-09-11T12:26:10.326Z,30.89
2022-09-11T12:28:38.045Z,31.09
2022-09-11T12:31:16.489Z,31.21
2022-09-11T12:33:47.271Z,31.23
2022-09-11T12:36:33.851Z,30.95
2022-09-11T12:39:24.053Z,31.03
2022-09-11T12:41:51.717Z,31.21
2022-09-11T12:44:52.350Z,31.24
2022-09-11T12:47:39.788Z,31.33
2022-09-11T12:50:18.077Z,31.42
2022-09-11T12:52:45.429Z,31.37
2022-09-11T12:55:23.291Z,31.19
2022-09-11T12:57:52.072Z,31.13
2022-09-11T13:00:34.068Z,31.35
2022-09-11T13:03:03.328Z,31.06
2022-09-11T13:05:38.876Z,30.75
2022-09-11T13:08:20.324Z,30.73
2022-09-11T13:10:48.104Z,30.94
2022-09-11T13:13:37.443Z,31.11
2022-09-11T13:16:44.567Z,30.55
2022-09-11T13:19:21.150Z,30.60
2022-09-11T13:21:56.576Z,30.49
2022-09-11T13:24:33.137Z,30.71
2022-09-11T13:27:05.774Z,30.56
2022-09-11T13:29:38.534Z,30.58
2022-09-11T13:32:12.389Z,30.71
2022-09-11T13:34:45.047Z,30.84
2022-09-11T13:37:16.264Z,30.83
2022-09-11T13:39:45.085Z,30.82
2022-09-11T13:42:20.929Z,30.88
2022-09-11T13:44:55.870Z,30.61
2022-09-11T13:47:29.078Z,30.64
2022-09-11T13:50:09.860Z,30.79
2022-09-11T13:52:37.304Z,30.98
2022-09-11T13:55:19.162Z,30.75
2022-09-11T13:57:59.177Z,30.86
2022-09-11T14:00:36.938Z,30.59
2022-09-11T14:03:06.867Z,30.40
2022-09-11T14:05:35.102Z,30.60
2022-09-11T14:08:09.841Z,30.52
2022-09-11T14:10:42.978Z,30.52
2022-09-11T14:13:45.679Z,30.46
2022-09-11T14:16:13.441Z,30.61
2022-09-11T14:19:08.401Z,30.23
2022-09-11T14:21:38.250Z,30.14
2022-09-11T14:24:33.455Z,30.21
2022-09-11T14:27:04.270Z,30.33
2022-09-11T14:29:33.698Z,30.21
2022-09-11T14:32:40.091Z,30.08
2022-09-11T14:35:10.346Z,29.67
2022-09-11T14:37:45.740Z,29.99
2022-09-11T14:40:22.446Z,29.82
2022-09-11T14:42:52.590Z,30.24
2022-09-11T14:45:23.068Z,30.15
2022-09-11T14:47:53.660Z,30.17
2022-09-11T14:50:21.310Z,30.05
2022-09-11T14:52:48.679Z,29.82
2022-09-11T14:55:17.964Z,30.00
2022-09-11T14:57:48.736Z,30.02
2022-09-11T15:00:20.335Z,29.91
2022-09-11T15:02:47.938Z,30.13
2022-09-11T15:05:19.085Z,29.73
2022-09-11T15:07:46.467Z,29.75
2022-09-11T15:10:15.189Z,29.44
2022-09-11T15:12:45.174Z,29.54
2022-09-11T15:15:16.164Z,29.51
2022-09-11T15:17:43.627Z,29.27
2022-09-11T15:20:10.999Z,29.24
2022-09-11T15:22:38.874Z,29.30
2022-09-11T15:25:07.098Z,29.28
2022-09-11T15:27:34.374Z,29.14
2022-09-11T15:30:01.930Z,29.14
2022-09-11T15:32:29.602Z,29.23
2022-09-11T15:34:57.266Z,29.28
2022-09-11T15:37:27.475Z,29.10
2022-09-11T15:39:54.929Z,29.07
2022-09-11T15:42:22.331Z,29.12
2022-09-11T15:44:50.683Z,29.05
2022-09-11T15:47:18.073Z,28.83
2022-09-11T15:49:50.253Z,28.80
2022-09-11T15:52:18.072Z,28.59
2022-09-11T15:54:45.711Z,28.51
2022-09-11T15:57:13.228Z,28.58
2022-09-11T15:59:40.997Z,28.60
2022-09-11T16:02:09.462Z,28.39
2022-09-11T16:04:36.828Z,28.54
2022-09-11T16:07:04.843Z,28.37
2022-09-11T16:09:32.990Z,28.20
2022-09-11T16:12:01.946Z,28.17
2022-09-11T16:14:32.713Z,28.23
2022-09-11T16:17:03.070Z,28.14
2022-09-11T16:19:31.575Z,28.12
2022-09-11T16:22:01.724Z,28.20
2022-09-11T16:24:32.800Z,28.08
2022-09-11T16:27:01.677Z,27.99
2022-09-11T16:29:51.485Z,28.08
2022-09-11T16:32:28.532Z,27.99
2022-09-11T16:34:57.676Z,27.92
2022-09-11T16:37:28.494Z,27.65
2022-09-11T16:39:56.315Z,27.79
2022-09-11T16:42:23.780Z,27.57
2022-09-11T16:44:51.199Z,27.63
2022-09-11T16:47:20.182Z,27.64
2022-09-11T16:50:06.412Z,27.34
2022-09-11T16:52:35.346Z,27.31
2022-09-11T16:55:03.490Z,27.20
2022-09-11T16:57:31.086Z,27.23
2022-09-11T16:59:58.666Z,27.23
2022-09-11T17:02:26.557Z,27.05
2022-09-11T17:04:53.906Z,27.03
2022-09-11T17:07:21.216Z,27.03
2022-09-11T17:09:48.689Z,27.00
2022-09-11T17:12:17.883Z,26.87
2022-09-11T17:14:45.400Z,26.73
2022-09-11T17:17:12.827Z,26.74
2022-09-11T17:19:40.194Z,26.66
2022-09-11T17:22:08.661Z,26.65
2022-09-11T17:24:36.450Z,26.59
2022-09-11T17:27:03.786Z,26.50
2022-09-11T17:29:31.186Z,26.42
2022-09-11T17:32:26.251Z,26.46
2022-09-11T17:34:48.516Z,26.27
2022-09-11T17:37:16.197Z,26.23
2022-09-11T17:39:44.214Z,26.26
2022-09-11T17:42:13.442Z,26.30
2022-09-11T17:44:41.609Z,26.30
2022-09-11T17:47:09.235Z,26.15
2022-09-11T17:49:36.948Z,26.13
2022-09-11T17:52:04.414Z,26.08
2022-09-11T17:54:32.141Z,26.03
2022-09-11T17:56:59.533Z,25.96
2022-09-11T17:59:27.137Z,25.93
2022-09-11T18:01:54.598Z,25.70
2022-09-11T18:04:22.533Z,25.58
2022-09-11T18:06:51.202Z,25.43
2022-09-11T18:09:19.980Z,25.36
2022-09-11T18:11:53.972Z,25.24
2022-09-11T18:14:22.967Z,25.25
2022-09-11T18:16:50.671Z,25.18
2022-09-11T18:19:20.418Z,25.21
2022-09-11T18:21:50.561Z,25.20
2022-09-11T18:24:20.772Z,25.10
2022-09-11T18:26:57.255Z,24.96
2022-09-11T18:29:29.998Z,24.82
2022-09-11T18:31:59.926Z,24.91
2022-09-11T18:34:28.835Z,24.90
2022-09-11T18:36:56.420Z,24.72
2022-09-11T18:39:24.400Z,24.73
2022-09-11T18:41:54.727Z,24.50
2022-09-11T18:44:24.655Z,24.39
2022-09-11T18:46:53.121Z,24.64
2022-09-11T18:49:21.430Z,24.72
2022-09-11T18:51:49.323Z,24.61
2022-09-11T18:54:21.387Z,24.18
2022-09-11T18:56:50.704Z,24.09
2022-09-11T18:59:20.185Z,24.04
2022-09-11T19:01:47.909Z,24.03
2022-09-11T19:04:16.442Z,23.79
2022-09-11T19:06:45.292Z,23.75
2022-09-11T19:09:13.515Z,23.76
2022-09-11T19:11:41.988Z,23.68
2022-09-11T19:14:11.873Z,23.58
2022-09-11T19:16:40.208Z,23.60
2022-09-11T19:19:08.414Z,23.51
2022-09-11T19:21:38.986Z,23.53
2022-09-11T19:24:07.697Z,23.35
2022-09-11T19:26:40.326Z,23.22
2022-09-11T19:29:13.279Z,23.23
2022-09-11T19:31:41.076Z,23.21
2022-09-11T19:34:12.021Z,23.14
2022-09-11T19:36:40.320Z,23.15
2022-09-11T19:39:08.368Z,23.17
2022-09-11T19:41:37.713Z,23.26
2022-09-11T19:44:07.313Z,23.18
2022-09-11T19:46:37.388Z,22.96
2022-09-11T19:49:08.938Z,22.80
2022-09-11T19:51:41.968Z,22.79
2022-09-11T19:54:12.084Z,22.68
2022-09-11T19:56:39.524Z,22.67
2022-09-11T19:59:08.380Z,22.60
2022-09-11T20:01:36.114Z,22.52
2022-09-11T20:04:04.701Z,22.55
2022-09-11T20:06:34.308Z,22.58
2022-09-11T20:09:29.370Z,22.52
2022-09-11T20:11:50.857Z,22.33
2022-09-11T20:14:18.341Z,22.24
2022-09-11T20:16:45.737Z,22.13
2022-09-11T20:19:15.041Z,22.15
2022-09-11T20:21:43.167Z,22.31
2022-09-11T20:24:10.712Z,22.31
2022-09-11T20:26:38.189Z,22.39
2022-09-11T20:29:08.730Z,22.64
2022-09-11T20:31:46.366Z,22.28
2022-09-11T20:34:18.652Z,22.22
2022-09-11T20:36:47.192Z,22.05
2022-09-11T20:39:18.000Z,21.88
2022-09-11T20:41:45.511Z,22.02
2022-09-11T20:44:12.889Z,22.03
2022-09-11T20:46:40.956Z,22.01
2022-09-11T20:49:08.443Z,22.00
2022-09-11T20:51:36.181Z,21.97
2022-09-11T20:54:03.743Z,21.82
2022-09-11T20:56:35.222Z,21.73
2022-09-11T20:59:02.500Z,21.69
2022-09-11T21:01:34.191Z,21.65
2022-09-11T21:04:04.439Z,21.61
2022-09-11T21:06:34.153Z,21.55
2022-09-11T21:09:07.724Z,21.67
2022-09-11T21:11:36.121Z,21.68
2022-09-11T21:14:06.662Z,21.70
2022-09-11T21:16:34.761Z,21.66
2022-09-11T21:19:04.079Z,21.66
2022-09-11T21:21:32.929Z,21.61
2022-09-11T21:24:02.799Z,21.46
2022-09-11T21:26:31.137Z,21.59
2022-09-11T21:29:00.421Z,21.69
2022-09-11T21:31:28.590Z,21.65
2022-09-11T21:33:56.555Z,21.56
2022-09-11T21:36:24.329Z,21.55
2022-09-11T21:38:51.748Z,21.51
2022-09-11T21:41:19.361Z,21.34
2022-09-11T21:43:48.710Z,21.17
2022-09-11T21:46:16.105Z,21.06
2022-09-11T21:48:43.496Z,20.98
2022-09-11T21:51:13.124Z,20.97
2022-09-11T21:53:42.836Z,20.69
2022-09-11T21:56:29.559Z,20.92
2022-09-11T21:58:57.543Z,21.05
2022-09-11T22:01:26.635Z,21.02
2022-09-11T22:03:54.715Z,20.87
2022-09-11T22:06:24.528Z,21.01
2022-09-11T22:08:53.410Z,20.99
2022-09-11T22:11:20.932Z,21.01
2022-09-11T22:13:49.531Z,21.05
2022-09-11T22:16:18.952Z,21.08
2022-09-11T22:18:52.215Z,21.04
2022-09-11T22:21:19.602Z,21.06
2022-09-11T22:23:47.280Z,20.91
2022-09-11T22:26:20.025Z,20.99
2022-09-11T22:28:47.649Z,20.98
2022-09-11T22:31:18.294Z,20.98
2022-09-11T22:33:45.748Z,21.03
2022-09-11T22:36:19.818Z,20.94
2022-09-11T22:38:48.634Z,21.00
2022-09-11T22:41:17.319Z,20.88
2022-09-11T22:43:45.186Z,20.76
2022-09-11T22:46:12.689Z,20.80
2022-09-11T22:48:40.270Z,20.84
2022-09-11T22:51:08.403Z,20.74
2022-09-11T22:53:35.856Z,20.59
2022-09-11T22:56:03.269Z,20.68
2022-09-11T22:58:30.735Z,20.74
2022-09-11T23:00:58.591Z,20.73
2022-09-11T23:03:26.823Z,20.71
2022-09-11T23:06:17.314Z,20.73
2022-09-11T23:08:48.142Z,20.67
2022-09-11T23:11:18.776Z,21.11
2022-09-11T23:13:48.588Z,21.12
2022-09-11T23:16:19.274Z,20.95
2022-09-11T23:18:47.257Z,20.82
2022-09-11T23:21:15.025Z,20.74
2022-09-11T23:23:43.468Z,20.77
2022-09-11T23:26:13.410Z,20.71
2022-09-11T23:28:41.193Z,20.71
2022-09-11T23:31:19.498Z,20.66
2022-09-11T23:33:47.920Z,20.67
2022-09-11T23:36:16.130Z,20.62
2022-09-11T23:38:45.184Z,20.64
2022-09-11T23:41:13.022Z,20.58
2022-09-11T23:43:41.574Z,20.60
2022-09-11T23:46:09.256Z,20.80
2022-09-11T23:48:37.008Z,20.83
2022-09-11T23:51:05.568Z,20.64
2022-09-11T23:53:32.903Z,20.60
2022-09-11T23:56:00.262Z,20.60
2022-09-11T23:58:27.669Z,20.74
